Time;durP1;ratioP1;P1;durP2;ratioP2;P2;SDS_P1;SDS_P2;PMS_P1;PMS_P2;Temp;Humidity;BMP_temperature;BMP_pressure;BME280_temperature;BME280_humidity;BME280_pressure;Samples;Min_cycle;Max_cycle;Signal;HPM_P1;HPM_P2
2022/02/27 00:00:00;;;;;;;25.95;6.10;;;4.10;72.00;;;;;;5035557;28;20182;-87
2022/02/27 00:02:26;;;;;;;9.53;4.80;;;4.10;71.90;;;;;;5009560;28;20189;-85
2022/02/27 00:04:51;;;;;;;22.77;6.77;;;4.00;71.90;;;;;;5027398;28;20278;-88
2022/02/27 00:07:17;;;;;;;17.53;5.43;;;4.00;72.00;;;;;;5017569;28;20187;-87
2022/02/27 00:09:43;;;;;;;12.43;4.97;;;4.00;71.80;;;;;;4999337;28;20437;-88
2022/02/27 00:12:09;;;;;;;33.42;5.57;;;3.90;71.90;;;;;;4999328;28;20204;-87
2022/02/27 00:14:35;;;;;;;12.57;5.40;;;4.20;71.80;;;;;;5017192;28;20195;-87
2022/02/27 00:17:01;;;;;;;12.97;5.80;;;4.10;71.30;;;;;;5004535;28;20997;-87
2022/02/27 00:19:26;;;;;;;14.03;5.53;;;4.20;71.60;;;;;;5011170;28;20175;-86
2022/02/27 00:21:52;;;;;;;14.60;6.07;;;4.30;71.10;;;;;;5029252;28;20453;-88
2022/02/27 00:24:18;;;;;;;11.47;6.03;;;4.30;70.80;;;;;;5004005;28;20199;-87
2022/02/27 00:26:44;;;;;;;11.88;5.72;;;4.30;70.70;;;;;;4998364;28;21032;-87
2022/02/27 00:29:10;;;;;;;14.93;6.03;;;4.50;70.70;;;;;;4998525;28;20203;-87
2022/02/27 00:31:36;;;;;;;15.87;6.00;;;4.20;70.20;;;;;;4983490;28;20481;-86
2022/02/27 00:34:02;;;;;;;10.00;5.40;;;4.20;70.40;;;;;;5018201;28;20445;-88
2022/02/27 00:36:27;;;;;;;14.20;6.70;;;4.30;70.60;;;;;;5000144;28;20425;-86
2022/02/27 00:38:53;;;;;;;18.73;6.33;;;4.40;70.30;;;;;;5015934;28;20193;-88
2022/02/27 00:41:20;;;;;;;21.20;5.80;;;4.50;70.20;;;;;;5016800;28;20277;-88
2022/02/27 00:43:59;;;;;;;14.55;5.07;;;4.50;70.00;;;;;;5000300;28;20548;-88
2022/02/27 00:46:59;;;;;;;7.03;3.97;;;4.40;69.70;;;;;;5016719;28;20186;-88
2022/02/27 00:49:46;;;;;;;10.90;5.43;;;4.20;69.50;;;;;;4997528;28;20174;-88
2022/02/27 00:52:38;;;;;;;13.15;5.20;;;4.20;69.90;;;;;;4992382;28;20214;-86
2022/02/27 00:55:04;;;;;;;16.33;5.13;;;4.30;70.20;;;;;;4999676;28;20254;-88
2022/02/27 00:57:30;;;;;;;17.27;5.40;;;4.40;69.90;;;;;;4997639;28;20639;-88
2022/02/27 00:59:57;;;;;;;10.43;6.07;;;4.40;69.80;;;;;;4998659;28;20175;-88
2022/02/27 01:02:23;;;;;;;9.48;5.07;;;4.40;70.00;;;;;;4987050;28;20194;-88
2022/02/27 01:04:49;;;;;;;12.70;4.20;;;4.40;69.50;;;;;;5003300;28;20207;-87
2022/02/27 01:07:15;;;;;;;8.40;5.40;;;4.40;69.40;;;;;;5024641;28;20262;-89
2022/02/27 01:09:42;;;;;;;13.98;5.07;;;4.20;70.00;;;;;;5006296;28;20183;-88
2022/02/27 01:12:08;;;;;;;10.25;4.65;;;4.20;69.50;;;;;;5020760;28;20817;-88
2022/02/27 01:14:34;;;;;;;19.23;5.55;;;4.30;70.00;;;;;;4998715;28;20202;-88
2022/02/27 01:17:02;;;;;;;23.83;5.43;;;4.30;69.80;;;;;;4999610;28;20187;-87
2022/02/27 01:19:29;;;;;;;20.70;4.70;;;4.40;69.70;;;;;;5001158;28;20201;-88
2022/02/27 01:21:55;;;;;;;17.45;4.93;;;4.30;69.40;;;;;;5005102;28;20596;-87
2022/02/27 01:24:21;;;;;;;7.73;4.27;;;4.30;69.50;;;;;;5004015;28;20213;-87
2022/02/27 01:26:50;;;;;;;10.30;4.85;;;4.30;69.50;;;;;;5021238;28;20189;-88
2022/02/27 01:29:15;;;;;;;18.70;5.35;;;4.30;69.70;;;;;;4997447;28;20186;-88
2022/02/27 01:31:41;;;;;;;12.83;4.57;;;4.00;69.70;;;;;;4998200;28;20206;-88
2022/02/27 01:34:07;;;;;;;12.30;4.17;;;4.20;69.90;;;;;;4998051;28;20190;-88
2022/02/27 01:36:33;;;;;;;14.63;5.43;;;4.20;69.90;;;;;;4998540;28;20270;-88
2022/02/27 01:38:58;;;;;;;11.90;5.40;;;4.00;69.70;;;;;;4999328;28;20174;-88
2022/02/27 01:41:25;;;;;;;11.87;4.77;;;4.20;70.00;;;;;;4999678;28;20193;-86
2022/02/27 01:43:51;;;;;;;12.77;5.55;;;4.20;69.80;;;;;;4998952;28;20497;-88
2022/02/27 01:46:17;;;;;;;8.45;3.75;;;4.20;69.60;;;;;;5018479;28;20175;-88
2022/02/27 01:48:43;;;;;;;7.75;4.45;;;4.30;69.70;;;;;;5020412;28;20265;-88
2022/02/27 01:51:10;;;;;;;13.13;4.88;;;4.30;69.70;;;;;;5004234;28;20202;-88
2022/02/27 01:53:36;;;;;;;14.90;6.32;;;4.30;69.50;;;;;;5005233;28;20286;-86
2022/02/27 01:56:03;;;;;;;11.70;5.17;;;4.30;69.70;;;;;;5004686;28;20245;-88
2022/02/27 01:58:30;;;;;;;9.60;4.47;;;4.30;69.60;;;;;;5000537;28;20421;-88
2022/02/27 02:00:58;;;;;;;16.08;6.18;;;4.30;69.50;;;;;;5018025;28;20208;-87
2022/02/27 02:03:25;;;;;;;7.32;4.70;;;4.10;69.70;;;;;;5001318;28;20202;-87
2022/02/27 02:05:51;;;;;;;19.23;4.78;;;4.10;70.00;;;;;;5003295;28;20239;-87
2022/02/27 02:08:18;;;;;;;8.77;4.78;;;4.10;70.30;;;;;;5000426;28;20655;-86
2022/02/27 02:10:44;;;;;;;9.68;5.18;;;3.90;70.40;;;;;;4999268;28;20744;-86
2022/02/27 02:13:11;;;;;;;9.73;4.97;;;4.00;70.70;;;;;;4999587;28;20210;-87
2022/02/27 02:15:36;;;;;;;15.50;5.70;;;4.00;70.70;;;;;;5000679;28;20182;-87
2022/02/27 02:18:06;;;;;;;10.07;5.13;;;4.00;70.70;;;;;;5018448;28;20685;-88
2022/02/27 02:20:31;;;;;;;10.82;4.65;;;3.90;70.80;;;;;;5018709;28;20940;-88
2022/02/27 02:22:57;;;;;;;12.00;5.27;;;3.90;71.00;;;;;;5001727;28;20270;-86
2022/02/27 02:25:23;;;;;;;12.80;5.03;;;3.90;71.00;;;;;;5001136;28;20221;-87
2022/02/27 02:27:49;;;;;;;10.40;5.38;;;3.90;71.10;;;;;;5001608;28;20190;-88
2022/02/27 02:30:15;;;;;;;11.47;5.40;;;3.80;71.00;;;;;;5006528;28;20182;-87
2022/02/27 02:32:56;;;;;;;9.90;5.32;;;3.70;71.40;;;;;;5025351;28;20444;-88
2022/02/27 02:35:23;;;;;;;16.00;5.00;;;3.60;71.70;;;;;;5010433;28;20197;-88
2022/02/27 02:37:49;;;;;;;21.67;4.55;;;3.60;72.00;;;;;;5026530;28;20238;-88
2022/02/27 02:40:15;;;;;;;15.70;5.30;;;3.70;72.10;;;;;;5006874;28;20252;-88
2022/02/27 02:42:43;;;;;;;10.73;4.10;;;3.70;72.10;;;;;;5003169;28;20631;-87
2022/02/27 02:45:11;;;;;;;8.57;4.53;;;3.70;71.90;;;;;;5000594;28;20441;-87
2022/02/27 02:47:48;;;;;;;16.40;5.32;;;3.80;71.80;;;;;;5005970;28;20213;-87
2022/02/27 02:50:15;;;;;;;12.30;5.10;;;3.70;71.90;;;;;;4980306;28;20182;-87
2022/02/27 02:52:41;;;;;;;20.55;4.85;;;3.70;71.90;;;;;;5016549;28;20183;-87
2022/02/27 02:55:13;;;;;;;14.82;4.30;;;3.70;71.80;;;;;;5000205;28;20261;-87
2022/02/27 02:57:39;;;;;;;13.25;4.78;;;3.80;71.50;;;;;;5017745;28;20639;-87
2022/02/27 03:00:10;;;;;;;18.00;5.37;;;3.70;71.50;;;;;;5017692;28;20167;-86
2022/02/27 03:02:37;;;;;;;7.50;4.85;;;3.70;71.50;;;;;;5014558;28;20953;-88
2022/02/27 03:05:05;;;;;;;21.38;6.50;;;3.60;71.50;;;;;;5005808;28;20202;-88
2022/02/27 03:07:33;;;;;;;15.90;4.85;;;3.60;71.60;;;;;;5011791;28;20204;-86
2022/02/27 03:09:59;;;;;;;13.20;5.90;;;3.60;71.50;;;;;;4995893;28;20671;-88
2022/02/27 03:12:25;;;;;;;14.50;6.35;;;3.50;71.60;;;;;;5021922;28;20208;-85
2022/02/27 03:14:51;;;;;;;7.67;4.47;;;3.50;71.90;;;;;;4999512;28;20585;-87
2022/02/27 03:17:17;;;;;;;6.13;3.60;;;3.40;71.90;;;;;;4983291;28;20457;-88
2022/02/27 03:19:42;;;;;;;11.20;4.93;;;3.40;71.70;;;;;;5001155;28;20440;-88
2022/02/27 03:22:08;;;;;;;13.80;4.30;;;3.50;71.90;;;;;;4999486;28;20426;-87
2022/02/27 03:24:34;;;;;;;14.18;3.47;;;3.60;71.80;;;;;;5018821;28;20819;-88
2022/02/27 03:27:00;;;;;;;17.47;4.50;;;3.30;71.50;;;;;;5001968;28;20186;-87
2022/02/27 03:29:26;;;;;;;12.33;4.20;;;3.30;71.70;;;;;;4998894;28;20175;-87
2022/02/27 03:31:52;;;;;;;8.87;3.57;;;3.30;71.80;;;;;;4998886;28;20202;-86
2022/02/27 03:34:18;;;;;;;14.07;4.05;;;3.30;71.80;;;;;;5016395;28;20442;-87
2022/02/27 03:36:44;;;;;;;13.40;4.80;;;3.30;71.60;;;;;;4999011;28;20274;-88
2022/02/27 03:39:10;;;;;;;6.87;4.13;;;3.40;71.50;;;;;;4975202;28;20477;-88
2022/02/27 03:41:35;;;;;;;17.08;4.85;;;3.40;71.20;;;;;;5016098;28;20186;-87
2022/02/27 03:44:01;;;;;;;11.30;3.60;;;3.50;71.10;;;;;;4998114;28;20214;-88
2022/02/27 03:46:34;;;;;;;9.63;4.70;;;3.40;70.80;;;;;;5016343;28;20728;-88
2022/02/27 03:49:02;;;;;;;12.65;4.63;;;3.30;70.90;;;;;;4999760;28;20181;-87
2022/02/27 03:51:31;;;;;;;6.43;3.47;;;3.30;70.80;;;;;;4998635;28;20294;-87
2022/02/27 03:53:57;;;;;;;14.13;4.65;;;3.30;70.70;;;;;;4998074;28;20748;-88
2022/02/27 03:56:22;;;;;;;11.13;4.00;;;3.30;70.70;;;;;;4998875;28;20183;-88
2022/02/27 03:58:48;;;;;;;5.80;3.50;;;3.30;70.40;;;;;;5018734;28;20178;-88
2022/02/27 04:01:14;;;;;;;8.73;4.70;;;3.30;70.40;;;;;;5004053;28;20543;-87
2022/02/27 04:03:40;;;;;;;11.20;4.50;;;3.30;70.30;;;;;;5002386;28;20544;-88
2022/02/27 04:06:05;;;;;;;8.83;4.20;;;3.30;70.20;;;;;;5021139;28;20191;-88
2022/02/27 04:08:31;;;;;;;11.77;4.10;;;3.30;70.30;;;;;;5021546;28;20706;-87
2022/02/27 04:10:57;;;;;;;9.88;3.70;;;3.30;70.30;;;;;;5001450;28;20645;-87
2022/02/27 04:13:23;;;;;;;8.67;4.07;;;3.30;70.30;;;;;;4998472;28;20198;-88
2022/02/27 04:15:49;;;;;;;7.95;3.08;;;3.20;70.30;;;;;;4998172;28;20942;-87
2022/02/27 04:18:16;;;;;;;13.17;5.00;;;3.10;71.10;;;;;;5016206;28;20258;-87
2022/02/27 04:20:41;;;;;;;8.00;3.63;;;3.30;70.50;;;;;;5015091;28;20185;-87
2022/02/27 04:23:07;;;;;;;10.47;3.77;;;3.40;70.10;;;;;;5015478;28;20202;-87
2022/02/27 04:25:33;;;;;;;9.93;3.47;;;3.40;69.60;;;;;;5016002;28;20171;-87
2022/02/27 04:27:59;;;;;;;6.23;3.70;;;3.50;69.50;;;;;;4998797;28;20422;-88
2022/02/27 04:30:24;;;;;;;9.13;3.57;;;3.50;69.30;;;;;;4998631;28;20190;-87
2022/02/27 04:32:50;;;;;;;7.33;4.17;;;3.50;69.50;;;;;;4998318;28;20195;-85
2022/02/27 04:35:16;;;;;;;5.53;3.10;;;3.50;69.20;;;;;;4987959;28;20646;-86
2022/02/27 04:37:42;;;;;;;9.47;4.33;;;3.50;69.10;;;;;;4997512;28;20422;-87
2022/02/27 04:40:08;;;;;;;9.52;3.88;;;3.40;69.20;;;;;;4997201;28;20513;-87
2022/02/27 04:42:34;;;;;;;7.97;3.22;;;3.40;69.50;;;;;;4997001;28;20187;-87
2022/02/27 04:45:00;;;;;;;7.73;3.80;;;3.40;69.50;;;;;;5014686;28;20217;-87
2022/02/27 04:47:26;;;;;;;12.05;4.18;;;3.50;69.50;;;;;;5015452;28;20501;-87
2022/02/27 04:49:52;;;;;;;6.70;4.03;;;3.60;69.30;;;;;;4997679;28;20206;-87
2022/02/27 04:52:18;;;;;;;11.40;4.77;;;3.50;69.30;;;;;;4997561;28;20536;-87
2022/02/27 04:54:45;;;;;;;5.05;3.35;;;3.50;69.30;;;;;;4997582;28;20198;-87
2022/02/27 04:57:11;;;;;;;11.32;4.22;;;3.30;69.40;;;;;;4999967;28;20182;-88
2022/02/27 04:59:37;;;;;;;11.05;4.05;;;3.30;69.70;;;;;;5007409;28;20175;-88
2022/02/27 05:02:04;;;;;;;12.07;3.80;;;3.20;69.90;;;;;;5004336;28;20182;-87
2022/02/27 05:04:29;;;;;;;6.68;4.07;;;3.20;70.00;;;;;;4996839;28;20206;-87
2022/02/27 05:06:55;;;;;;;12.83;3.77;;;3.10;70.20;;;;;;4996991;28;20198;-87
2022/02/27 05:09:21;;;;;;;8.20;3.40;;;3.10;70.30;;;;;;4996957;28;20448;-86
2022/02/27 05:11:48;;;;;;;12.93;4.53;;;3.10;70.40;;;;;;4996701;28;20290;-88
2022/02/27 05:14:14;;;;;;;13.52;4.18;;;3.10;70.60;;;;;;4996802;28;20445;-86
2022/02/27 05:16:41;;;;;;;11.55;3.67;;;3.00;70.90;;;;;;4998037;28;20654;-87
2022/02/27 05:19:07;;;;;;;13.77;5.43;;;2.90;70.90;;;;;;4997936;28;20659;-88
2022/02/27 05:21:33;;;;;;;6.75;4.65;;;2.80;71.10;;;;;;4997987;28;20313;-87
2022/02/27 05:23:59;;;;;;;7.32;4.15;;;2.90;71.30;;;;;;4999470;28;20234;-88
2022/02/27 05:26:24;;;;;;;6.40;3.90;;;2.90;71.20;;;;;;5005333;28;20174;-87
2022/02/27 05:28:50;;;;;;;8.50;4.20;;;2.90;71.60;;;;;;5023675;28;20187;-87
2022/02/27 05:31:16;;;;;;;7.17;4.70;;;2.90;71.40;;;;;;5002616;28;20740;-87
2022/02/27 05:33:42;;;;;;;6.90;4.00;;;2.80;71.30;;;;;;5000639;28;21030;-87
2022/02/27 05:36:08;;;;;;;15.47;4.60;;;2.80;71.50;;;;;;4982154;28;20186;-88
2022/02/27 05:38:33;;;;;;;12.03;4.53;;;2.80;71.60;;;;;;5015135;28;20798;-88
2022/02/27 05:40:59;;;;;;;6.93;4.40;;;2.70;71.70;;;;;;5019653;28;20193;-87
2022/02/27 05:43:25;;;;;;;9.70;5.63;;;2.70;72.00;;;;;;5008814;28;20908;-88
2022/02/27 05:45:50;;;;;;;7.37;5.03;;;2.70;72.00;;;;;;5000361;28;20181;-87
2022/02/27 05:48:16;;;;;;;7.70;4.83;;;2.80;72.00;;;;;;5000956;28;20209;-87
2022/02/27 05:50:42;;;;;;;8.53;4.17;;;2.80;71.90;;;;;;5002533;28;20252;-87
2022/02/27 05:53:08;;;;;;;17.40;5.67;;;2.70;72.00;;;;;;5015094;28;20244;-87
2022/02/27 05:55:34;;;;;;;6.37;4.27;;;2.70;72.30;;;;;;5014984;28;20178;-86
2022/02/27 05:58:01;;;;;;;10.38;4.38;;;2.70;72.20;;;;;;5016715;28;20429;-87
2022/02/27 06:00:27;;;;;;;14.38;6.68;;;2.50;72.40;;;;;;5019550;28;20178;-87
2022/02/27 06:02:53;;;;;;;10.70;5.37;;;2.40;72.70;;;;;;5018681;28;20740;-89
2022/02/27 06:05:19;;;;;;;12.60;5.90;;;2.50;73.00;;;;;;5000866;28;20789;-88
2022/02/27 06:07:44;;;;;;;14.90;5.50;;;2.40;73.10;;;;;;5003939;28;20178;-88
2022/02/27 06:10:10;;;;;;;9.23;4.47;;;2.50;73.20;;;;;;5001088;28;20170;-87
2022/02/27 06:12:36;;;;;;;8.40;5.00;;;2.30;73.40;;;;;;5000293;28;20614;-88
2022/02/27 06:15:02;;;;;;;6.63;4.67;;;2.20;73.70;;;;;;5000308;28;20267;-88
2022/02/27 06:17:28;;;;;;;14.98;6.18;;;2.20;74.00;;;;;;5001204;28;20507;-88
2022/02/27 06:19:54;;;;;;;7.70;4.83;;;2.20;74.20;;;;;;5002137;28;20178;-88
2022/02/27 06:22:20;;;;;;;9.33;4.93;;;2.10;74.20;;;;;;5004249;28;20178;-88
2022/02/27 06:24:47;;;;;;;12.65;5.32;;;2.10;74.50;;;;;;5006645;28;20456;-88
2022/02/27 06:27:13;;;;;;;10.55;5.35;;;2.10;74.60;;;;;;5006627;28;20187;-88
2022/02/27 06:29:39;;;;;;;8.18;5.22;;;2.10;74.50;;;;;;5005301;28;20218;-88
2022/02/27 06:32:05;;;;;;;22.27;5.80;;;2.20;74.40;;;;;;5001338;28;20214;-88
2022/02/27 06:34:31;;;;;;;12.75;4.60;;;2.30;74.30;;;;;;5000905;28;20190;-87
2022/02/27 06:36:56;;;;;;;6.00;4.70;;;2.30;74.00;;;;;;5001261;28;20293;-88
2022/02/27 06:39:22;;;;;;;17.10;5.50;;;2.40;73.90;;;;;;5001493;28;20770;-88
2022/02/27 06:41:47;;;;;;;14.98;5.80;;;2.20;73.90;;;;;;5001254;28;20422;-89
2022/02/27 06:44:13;;;;;;;8.33;5.23;;;2.40;74.10;;;;;;5002249;28;20217;-88
2022/02/27 06:46:39;;;;;;;6.30;3.93;;;2.30;74.00;;;;;;5019123;28;20626;-88
2022/02/27 06:49:05;;;;;;;9.27;4.90;;;2.30;74.20;;;;;;5019367;28;20257;-88
2022/02/27 06:51:30;;;;;;;14.67;6.53;;;2.40;74.00;;;;;;5001331;28;20206;-89
2022/02/27 06:53:56;;;;;;;7.73;5.20;;;2.50;73.90;;;;;;5000674;28;20448;-88
2022/02/27 06:56:24;;;;;;;11.23;5.23;;;2.50;73.60;;;;;;4999406;28;20336;-87
2022/02/27 06:58:49;;;;;;;10.85;5.35;;;2.50;73.50;;;;;;5020293;28;20170;-87
2022/02/27 07:01:18;;;;;;;17.90;5.40;;;2.40;73.70;;;;;;5005983;28;20175;-89
2022/02/27 07:03:44;;;;;;;17.77;5.43;;;2.40;74.60;;;;;;5005757;28;20253;-88
2022/02/27 07:06:09;;;;;;;9.03;5.13;;;2.40;73.90;;;;;;5006779;28;20190;-87
2022/02/27 07:08:35;;;;;;;11.47;5.60;;;2.60;73.90;;;;;;5023600;28;20437;-88
2022/02/27 07:11:03;;;;;;;8.37;5.17;;;2.60;73.50;;;;;;5000765;28;20203;-88
2022/02/27 07:13:31;;;;;;;19.50;5.72;;;2.60;73.30;;;;;;4998806;28;20200;-87
2022/02/27 07:15:56;;;;;;;7.47;5.18;;;2.60;73.30;;;;;;4999622;28;20182;-89
2022/02/27 07:18:22;;;;;;;10.40;4.40;;;2.60;73.40;;;;;;4999872;28;20170;-88
2022/02/27 07:20:48;;;;;;;17.83;6.43;;;2.50;73.40;;;;;;4998864;28;20242;-86
2022/02/27 07:23:13;;;;;;;10.07;5.93;;;2.40;73.70;;;;;;5016798;28;20198;-87
2022/02/27 07:26:08;;;;;;;12.53;5.60;;;2.50;74.00;;;;;;4999092;28;20219;-86
2022/02/27 07:28:33;;;;;;;14.43;5.80;;;2.60;73.80;;;;;;4999890;28;20217;-85
2022/02/27 07:30:59;;;;;;;8.03;5.93;;;2.70;73.70;;;;;;4999290;28;20198;-85
2022/02/27 07:33:25;;;;;;;10.27;5.73;;;2.60;73.40;;;;;;4999710;28;20194;-84
2022/02/27 07:35:51;;;;;;;10.87;5.80;;;2.60;73.50;;;;;;4999596;28;20445;-88
2022/02/27 07:38:17;;;;;;;9.05;5.82;;;2.70;73.50;;;;;;4999849;28;20437;-89
2022/02/27 07:40:43;;;;;;;9.80;6.07;;;2.70;73.40;;;;;;5000315;28;20183;-88
2022/02/27 07:43:09;;;;;;;8.57;4.67;;;2.80;73.40;;;;;;4998818;28;20215;-86
2022/02/27 07:45:34;;;;;;;14.03;6.07;;;2.70;73.80;;;;;;5017350;28;20536;-85
2022/02/27 07:48:00;;;;;;;11.83;6.90;;;2.60;73.80;;;;;;5016867;28;20440;-86
2022/02/27 07:50:26;;;;;;;14.33;5.90;;;2.70;74.10;;;;;;4999929;28;20265;-85
2022/02/27 07:52:52;;;;;;;12.43;6.80;;;2.70;74.00;;;;;;4998901;28;20230;-86
2022/02/27 07:55:19;;;;;;;16.67;6.87;;;2.70;74.10;;;;;;4999244;28;20199;-85
2022/02/27 07:57:45;;;;;;;16.50;7.85;;;2.80;74.00;;;;;;5018957;28;20499;-86
2022/02/27 08:00:12;;;;;;;13.47;6.63;;;3.00;73.80;;;;;;5001387;28;20686;-87
2022/02/27 08:02:37;;;;;;;17.38;6.20;;;3.00;73.50;;;;;;5001301;28;20421;-86
2022/02/27 08:05:05;;;;;;;19.07;8.00;;;3.00;72.90;;;;;;5002233;28;20193;-85
2022/02/27 08:07:31;;;;;;;12.50;5.85;;;3.10;72.80;;;;;;4981056;28;20183;-85
2022/02/27 08:09:57;;;;;;;13.07;5.90;;;3.10;72.80;;;;;;5000631;28;20213;-86
2022/02/27 08:12:23;;;;;;;25.37;5.90;;;3.00;72.40;;;;;;4993661;28;20465;-86
2022/02/27 08:14:50;;;;;;;11.60;5.40;;;3.10;73.20;;;;;;5001890;28;20198;-85
2022/02/27 08:17:18;;;;;;;9.85;5.28;;;3.20;72.30;;;;;;5017462;28;20431;-85
2022/02/27 08:19:45;;;;;;;14.63;5.80;;;3.30;72.10;;;;;;5017232;28;20265;-84
2022/02/27 08:22:11;;;;;;;15.73;5.55;;;3.20;71.60;;;;;;4998993;28;20261;-86
2022/02/27 08:24:37;;;;;;;10.85;5.10;;;3.50;72.10;;;;;;5017545;28;20631;-86
2022/02/27 08:27:04;;;;;;;15.30;7.27;;;3.50;71.60;;;;;;5002269;28;20179;-86
2022/02/27 08:29:29;;;;;;;27.48;7.93;;;3.70;71.30;;;;;;5007366;28;20174;-86
2022/02/27 08:31:55;;;;;;;14.10;6.30;;;3.70;70.80;;;;;;5006760;28;20683;-86
2022/02/27 08:34:23;;;;;;;13.77;6.37;;;3.70;70.40;;;;;;5006486;28;20199;-86
2022/02/27 08:36:49;;;;;;;10.68;5.00;;;3.90;70.40;;;;;;5009275;28;20175;-86
2022/02/27 08:39:15;;;;;;;14.07;5.87;;;3.80;69.90;;;;;;5004590;28;20238;-86
2022/02/27 08:41:41;;;;;;;11.25;6.20;;;3.80;69.80;;;;;;5009382;28;20457;-86
2022/02/27 08:44:07;;;;;;;9.90;4.97;;;3.90;69.00;;;;;;5012193;28;20717;-85
2022/02/27 08:46:33;;;;;;;18.02;5.28;;;3.90;68.80;;;;;;5021121;28;20426;-85
2022/02/27 08:48:58;;;;;;;15.50;5.50;;;4.20;69.10;;;;;;5014154;28;20244;-85
2022/02/27 08:51:24;;;;;;;8.63;4.70;;;4.20;68.10;;;;;;5013149;28;20461;-85
2022/02/27 08:53:50;;;;;;;17.08;5.30;;;4.30;67.60;;;;;;5004095;28;20258;-86
2022/02/27 08:56:16;;;;;;;6.43;4.23;;;4.40;67.40;;;;;;5013419;28;20182;-86
2022/02/27 08:58:42;;;;;;;12.15;4.47;;;4.50;67.00;;;;;;5011224;28;20554;-86
2022/02/27 09:01:07;;;;;;;13.10;5.10;;;4.70;66.50;;;;;;5004768;28;20182;-86
2022/02/27 09:03:33;;;;;;;7.13;4.60;;;4.80;66.40;;;;;;5019764;28;20198;-85
2022/02/27 09:05:59;;;;;;;12.70;4.57;;;5.00;65.30;;;;;;5011885;28;20650;-86
2022/02/27 09:08:25;;;;;;;8.90;5.00;;;5.10;65.10;;;;;;5019020;28;20192;-86
2022/02/27 09:10:51;;;;;;;7.17;4.10;;;5.10;64.30;;;;;;5036470;28;20202;-86
2022/02/27 09:13:16;;;;;;;6.40;3.95;;;5.10;63.90;;;;;;5019141;28;20448;-87
2022/02/27 09:15:42;;;;;;;7.00;4.40;;;5.20;63.70;;;;;;5039262;28;20188;-85
2022/02/27 09:18:08;;;;;;;11.03;4.43;;;5.10;62.90;;;;;;5017961;28;20186;-85
2022/02/27 09:20:34;;;;;;;13.53;3.83;;;5.00;62.50;;;;;;5014944;28;20185;-85
2022/02/27 09:23:00;;;;;;;12.93;5.00;;;5.00;62.20;;;;;;4997618;28;20201;-86
2022/02/27 09:25:26;;;;;;;11.07;4.47;;;5.00;61.70;;;;;;4997918;28;20182;-84
2022/02/27 09:27:51;;;;;;;11.93;4.00;;;5.20;61.40;;;;;;4997621;28;20178;-85
2022/02/27 09:30:17;;;;;;;8.47;3.70;;;5.30;61.40;;;;;;4998269;28;20175;-85
2022/02/27 09:32:43;;;;;;;5.37;3.77;;;5.60;61.10;;;;;;4998167;28;20229;-85
2022/02/27 09:35:10;;;;;;;5.47;3.67;;;5.60;59.80;;;;;;5017525;28;20174;-85
2022/02/27 09:37:36;;;;;;;9.23;5.07;;;5.40;59.20;;;;;;5020424;28;20482;-85
2022/02/27 09:40:04;;;;;;;8.63;4.00;;;5.70;59.80;;;;;;4998129;28;20186;-85
2022/02/27 09:42:31;;;;;;;6.35;3.50;;;5.80;58.70;;;;;;4996654;28;20171;-85
2022/02/27 09:44:59;;;;;;;8.70;3.85;;;5.90;59.50;;;;;;5005238;28;20245;-85
2022/02/27 09:47:26;;;;;;;8.50;3.58;;;5.80;59.10;;;;;;4998648;28;20198;-85
2022/02/27 09:49:53;;;;;;;5.57;2.85;;;6.10;58.40;;;;;;4998633;28;20190;-85
2022/02/27 09:52:21;;;;;;;15.70;4.88;;;6.40;59.50;;;;;;4998854;28;20226;-85
2022/02/27 09:54:48;;;;;;;11.70;3.83;;;6.20;56.90;;;;;;4999065;28;20289;-88
2022/02/27 09:57:19;;;;;;;5.78;3.90;;;6.20;58.50;;;;;;5001982;28;20181;-85
2022/02/27 09:59:45;;;;;;;8.15;3.08;;;6.10;56.70;;;;;;5004919;28;20203;-87
2022/02/27 10:02:12;;;;;;;9.45;3.55;;;5.90;56.70;;;;;;5003742;28;20175;-87
2022/02/27 10:04:40;;;;;;;6.97;4.45;;;6.10;56.90;;;;;;5019325;28;20198;-88
2022/02/27 10:07:12;;;;;;;9.40;3.60;;;6.00;56.80;;;;;;4986024;28;20249;-87
2022/02/27 10:09:39;;;;;;;9.70;4.43;;;5.90;56.00;;;;;;5011988;28;20198;-87
2022/02/27 10:12:24;;;;;;;9.52;4.05;;;6.10;56.10;;;;;;5021239;28;20206;-87
2022/02/27 10:15:07;;;;;;;9.13;3.65;;;6.30;56.20;;;;;;4997773;28;20294;-85
2022/02/27 10:17:39;;;;;;;6.78;3.83;;;6.60;55.70;;;;;;4997774;28;20178;-86
2022/02/27 10:20:13;;;;;;;8.45;3.30;;;6.50;54.70;;;;;;4998218;28;20229;-86
2022/02/27 10:22:45;;;;;;;9.48;3.65;;;6.70;56.00;;;;;;4998539;28;20195;-88
2022/02/27 10:25:20;;;;;;;6.15;2.38;;;7.30;59.70;;;;;;4997250;28;20719;-86
2022/02/27 10:27:48;;;;;;;6.43;2.50;;;7.00;53.90;;;;;;4997373;28;20174;-86
2022/02/27 10:30:14;;;;;;;5.20;2.75;;;7.50;56.10;;;;;;4997374;28;20663;-87
2022/02/27 10:32:49;;;;;;;4.45;2.40;;;7.80;55.40;;;;;;5001140;28;20214;-86
2022/02/27 10:35:39;;;;;;;5.45;2.85;;;7.70;51.20;;;;;;5000682;28;20185;-87
2022/02/27 10:38:10;;;;;;;6.57;2.38;;;8.00;54.00;;;;;;5001089;28;20237;-86
2022/02/27 10:40:39;;;;;;;2.70;1.95;;;7.80;49.30;;;;;;5018653;28;20174;-86
2022/02/27 10:43:09;;;;;;;4.25;2.22;;;7.80;48.10;;;;;;5000278;28;20210;-87
2022/02/27 10:45:36;;;;;;;5.20;2.08;;;7.90;48.80;;;;;;5018179;28;20701;-86
2022/02/27 10:48:16;;;;;;;7.95;2.10;;;7.80;47.40;;;;;;5018914;28;20329;-87
2022/02/27 10:50:44;;;;;;;7.13;2.00;;;7.80;47.80;;;;;;5001438;28;20604;-87
2022/02/27 10:53:13;;;;;;;3.95;1.95;;;7.90;50.10;;;;;;5002354;28;20199;-87
2022/02/27 10:55:39;;;;;;;2.80;1.92;;;8.40;51.40;;;;;;5004154;28;20183;-86
2022/02/27 10:58:05;;;;;;;5.10;2.60;;;8.50;47.80;;;;;;5026036;28;20195;-87
2022/02/27 11:00:34;;;;;;;2.35;1.80;;;8.80;48.90;;;;;;5007571;28;20173;-86
2022/02/27 11:03:09;;;;;;;3.88;1.55;;;8.90;47.20;;;;;;5005472;28;20202;-86
2022/02/27 11:05:41;;;;;;;2.45;2.20;;;8.20;44.20;;;;;;5004792;28;20234;-86
2022/02/27 11:08:11;;;;;;;8.73;2.20;;;8.20;44.40;;;;;;5019963;28;20654;-86
2022/02/27 11:10:39;;;;;;;7.15;3.10;;;8.10;44.80;;;;;;5037340;28;20542;-86
2022/02/27 11:14:53;;;;;;;3.17;2.20;;;8.70;45.50;;;;;;5114098;27;20604;-87
2022/02/27 11:17:20;;;;;;;5.95;2.40;;;8.50;45.20;;;;;;5111622;28;20179;-87
2022/02/27 11:19:46;;;;;;;6.15;2.72;;;8.40;44.70;;;;;;5111919;28;20188;-88
2022/02/27 11:22:13;;;;;;;2.58;1.90;;;8.50;45.40;;;;;;5113148;28;20175;-87
2022/02/27 11:24:42;;;;;;;2.67;2.03;;;8.50;44.80;;;;;;5113538;28;20199;-88
2022/02/27 11:27:08;;;;;;;2.75;1.73;;;8.50;45.10;;;;;;5115530;28;20179;-88
2022/02/27 11:29:34;;;;;;;2.58;1.80;;;8.40;43.60;;;;;;5120276;28;20246;-87
2022/02/27 11:32:00;;;;;;;8.23;2.78;;;8.60;44.00;;;;;;5119661;28;20666;-88
2022/02/27 11:34:29;;;;;;;7.57;1.90;;;8.60;43.40;;;;;;5117859;28;20245;-88
2022/02/27 11:36:56;;;;;;;4.80;2.83;;;8.70;43.60;;;;;;5115456;28;20224;-88
2022/02/27 11:42:07;;;;;;;7.75;1.90;;;8.70;43.70;;;;;;5113366;28;20201;-88
2022/02/27 11:44:38;;;;;;;3.95;1.85;;;8.80;43.20;;;;;;5111253;28;20263;-88
2022/02/27 11:47:05;;;;;;;3.72;1.80;;;8.70;42.30;;;;;;5111663;28;20163;-88
2022/02/27 11:49:30;;;;;;;4.43;2.00;;;8.70;42.00;;;;;;5113052;28;20178;-88
2022/02/27 11:52:11;;;;;;;2.07;1.67;;;8.90;42.30;;;;;;5119472;28;20179;-88
2022/02/27 11:54:57;;;;;;;4.72;1.80;;;9.00;42.90;;;;;;5123119;28;20214;-88
2022/02/27 11:57:32;;;;;;;4.45;2.15;;;9.00;43.30;;;;;;5118771;28;20219;-87
2022/02/27 12:00:04;;;;;;;2.20;1.88;;;9.20;43.60;;;;;;5115683;28;20653;-88
2022/02/27 12:02:39;;;;;;;3.50;2.03;;;9.30;43.30;;;;;;5112858;28;20480;-88
2022/02/27 12:05:17;;;;;;;4.25;1.70;;;9.30;42.90;;;;;;5112839;28;20171;-88
2022/02/27 12:08:01;;;;;;;2.50;2.20;;;9.40;42.50;;;;;;5112510;28;20198;-88
2022/02/27 12:10:41;;;;;;;5.20;2.10;;;9.20;42.10;;;;;;5113774;28;20179;-88
2022/02/27 12:13:25;;;;;;;2.10;1.90;;;9.30;42.80;;;;;;5110033;28;20215;-88
2022/02/27 12:16:11;;;;;;;3.88;2.10;;;9.40;42.80;;;;;;5110624;28;20501;-88
2022/02/27 12:18:47;;;;;;;4.97;2.13;;;9.60;43.10;;;;;;5112589;28;20174;-88
2022/02/27 12:21:18;;;;;;;2.75;2.00;;;9.70;43.40;;;;;;5094120;28;20176;-88
2022/02/27 12:23:48;;;;;;;3.22;2.00;;;9.70;43.50;;;;;;5110976;28;20203;-88
2022/02/27 12:26:41;;;;;;;3.55;1.77;;;9.50;42.10;;;;;;5098437;28;20222;-88
2022/02/27 12:29:07;;;;;;;3.47;1.70;;;9.70;43.30;;;;;;5099421;28;20643;-88
2022/02/27 12:31:34;;;;;;;2.28;1.40;;;9.90;43.00;;;;;;5102541;28;20539;-88
2022/02/27 12:34:10;;;;;;;4.97;1.75;;;9.90;42.30;;;;;;5088528;28;20239;-88
2022/02/27 12:36:36;;;;;;;2.78;1.67;;;10.00;40.20;;;;;;5101705;28;20159;-88
2022/02/27 12:39:11;;;;;;;1.80;1.52;;;9.90;38.00;;;;;;5098696;28;20180;-88
2022/02/27 12:41:42;;;;;;;5.00;2.03;;;9.80;36.60;;;;;;5101096;28;20192;-87
2022/02/27 12:44:09;;;;;;;1.60;1.40;;;9.90;37.30;;;;;;5099990;28;20229;-89
2022/02/27 12:46:36;;;;;;;3.70;1.30;;;10.00;37.10;;;;;;5098579;28;20662;-88
2022/02/27 12:51:46;;;;;;;1.58;1.42;;;10.30;38.60;;;;;;5105586;28;20195;-88
2022/02/27 12:54:31;;;;;;;5.60;1.30;;;10.30;37.50;;;;;;5106230;28;20204;-87
2022/02/27 12:57:03;;;;;;;4.20;1.67;;;10.30;37.10;;;;;;5107660;28;20164;-87
2022/02/27 12:59:31;;;;;;;3.35;1.90;;;10.30;37.40;;;;;;5107660;28;20179;-87
2022/02/27 13:01:58;;;;;;;3.83;1.67;;;10.30;37.00;;;;;;5108650;28;20461;-87